sensor_id;sensor_type;location;lat;lon;timestamp;pressure;altitude;pressure_sealevel;temperature;humidity
75172;BME280;63750;52.418;20.742;2023-06-24T00:00:48;100770.35;;;25.68;46.37
75172;BME280;63750;52.418;20.742;2023-06-24T00:03:17;100770.28;;;25.70;46.30
75172;BME280;63750;52.418;20.742;2023-06-24T00:05:45;100767.85;;;25.70;46.24
75172;BME280;63750;52.418;20.742;2023-06-24T00:08:13;100767.08;;;25.68;46.17
75172;BME280;63750;52.418;20.742;2023-06-24T00:10:41;100766.85;;;25.67;46.29
75172;BME280;63750;52.418;20.742;2023-06-24T00:13:10;100765.84;;;25.64;46.94
75172;BME280;63750;52.418;20.742;2023-06-24T00:15:39;100764.75;;;25.64;46.74
75172;BME280;63750;52.418;20.742;2023-06-24T00:18:07;100766.30;;;25.65;46.79
75172;BME280;63750;52.418;20.742;2023-06-24T00:20:35;100764.70;;;25.66;46.98
75172;BME280;63750;52.418;20.742;2023-06-24T00:23:03;100769.67;;;25.67;46.64
75172;BME280;63750;52.418;20.742;2023-06-24T00:25:32;100768.56;;;25.64;46.57
75172;BME280;63750;52.418;20.742;2023-06-24T00:28:00;100775.41;;;25.62;46.75
75172;BME280;63750;52.418;20.742;2023-06-24T00:30:28;100774.06;;;25.62;46.78
75172;BME280;63750;52.418;20.742;2023-06-24T00:32:57;100776.20;;;25.61;46.88
75172;BME280;63750;52.418;20.742;2023-06-24T00:35:25;100786.00;;;25.63;46.77
75172;BME280;63750;52.418;20.742;2023-06-24T00:37:53;100793.83;;;25.70;46.79
75172;BME280;63750;52.418;20.742;2023-06-24T00:40:21;100794.54;;;25.79;46.48
75172;BME280;63750;52.418;20.742;2023-06-24T00:42:49;100793.94;;;25.80;46.13
75172;BME280;63750;52.418;20.742;2023-06-24T00:45:18;100790.10;;;25.78;46.11
75172;BME280;63750;52.418;20.742;2023-06-24T00:47:46;100792.98;;;25.76;46.15
75172;BME280;63750;52.418;20.742;2023-06-24T00:50:15;100797.42;;;25.75;46.17
75172;BME280;63750;52.418;20.742;2023-06-24T00:52:43;100802.30;;;25.72;46.09
75172;BME280;63750;52.418;20.742;2023-06-24T00:55:12;100805.08;;;25.67;46.14
75172;BME280;63750;52.418;20.742;2023-06-24T00:57:43;100811.42;;;25.62;46.35
75172;BME280;63750;52.418;20.742;2023-06-24T01:00:13;100813.71;;;25.61;46.41
75172;BME280;63750;52.418;20.742;2023-06-24T01:02:41;100815.73;;;25.58;46.31
75172;BME280;63750;52.418;20.742;2023-06-24T01:05:10;100817.73;;;25.55;46.27
75172;BME280;63750;52.418;20.742;2023-06-24T01:07:40;100822.37;;;25.52;46.29
75172;BME280;63750;52.418;20.742;2023-06-24T01:10:10;100819.20;;;25.48;46.20
75172;BME280;63750;52.418;20.742;2023-06-24T01:12:40;100815.65;;;25.46;46.34
75172;BME280;63750;52.418;20.742;2023-06-24T01:15:10;100817.32;;;25.46;46.41
75172;BME280;63750;52.418;20.742;2023-06-24T01:17:44;100817.88;;;25.46;46.40
75172;BME280;63750;52.418;20.742;2023-06-24T01:20:20;100816.58;;;25.45;46.16
75172;BME280;63750;52.418;20.742;2023-06-24T01:23:29;100823.08;;;25.44;46.19
75172;BME280;63750;52.418;20.742;2023-06-24T01:26:14;100826.40;;;25.42;46.16
75172;BME280;63750;52.418;20.742;2023-06-24T01:29:14;100827.12;;;25.41;46.07
75172;BME280;63750;52.418;20.742;2023-06-24T01:31:49;100828.93;;;25.38;46.05
75172;BME280;63750;52.418;20.742;2023-06-24T01:34:24;100822.88;;;25.41;46.26
75172;BME280;63750;52.418;20.742;2023-06-24T01:37:03;100823.13;;;25.43;46.06
75172;BME280;63750;52.418;20.742;2023-06-24T01:39:38;100827.73;;;25.41;45.81
75172;BME280;63750;52.418;20.742;2023-06-24T01:42:11;100829.92;;;25.40;45.94
75172;BME280;63750;52.418;20.742;2023-06-24T01:44:43;100832.06;;;25.39;45.81
75172;BME280;63750;52.418;20.742;2023-06-24T01:47:14;100834.31;;;25.38;45.99
75172;BME280;63750;52.418;20.742;2023-06-24T01:49:46;100835.64;;;25.38;45.89
75172;BME280;63750;52.418;20.742;2023-06-24T01:52:15;100830.97;;;25.37;45.75
75172;BME280;63750;52.418;20.742;2023-06-24T01:54:47;100831.62;;;25.35;45.91
75172;BME280;63750;52.418;20.742;2023-06-24T01:57:16;100827.69;;;25.36;45.72
75172;BME280;63750;52.418;20.742;2023-06-24T01:59:46;100826.00;;;25.36;45.67
75172;BME280;63750;52.418;20.742;2023-06-24T02:02:16;100821.66;;;25.35;45.61
75172;BME280;63750;52.418;20.742;2023-06-24T02:04:46;100822.82;;;25.32;45.68
75172;BME280;63750;52.418;20.742;2023-06-24T02:07:16;100814.65;;;25.32;45.57
75172;BME280;63750;52.418;20.742;2023-06-24T02:09:47;100814.31;;;25.33;45.70
75172;BME280;63750;52.418;20.742;2023-06-24T02:12:16;100819.27;;;25.36;45.81
75172;BME280;63750;52.418;20.742;2023-06-24T02:14:45;100818.61;;;25.40;45.89
75172;BME280;63750;52.418;20.742;2023-06-24T02:17:16;100815.01;;;25.48;45.60
75172;BME280;63750;52.418;20.742;2023-06-24T02:19:44;100819.30;;;25.49;45.60
75172;BME280;63750;52.418;20.742;2023-06-24T02:22:14;100820.36;;;25.49;45.62
75172;BME280;63750;52.418;20.742;2023-06-24T02:24:44;100822.90;;;25.46;45.57
75172;BME280;63750;52.418;20.742;2023-06-24T02:27:12;100827.22;;;25.44;45.49
75172;BME280;63750;52.418;20.742;2023-06-24T02:29:41;100830.17;;;25.40;45.50
75172;BME280;63750;52.418;20.742;2023-06-24T02:32:11;100835.69;;;25.36;45.70
75172;BME280;63750;52.418;20.742;2023-06-24T02:34:39;100845.65;;;25.36;45.79
75172;BME280;63750;52.418;20.742;2023-06-24T02:37:08;100847.79;;;25.34;45.74
75172;BME280;63750;52.418;20.742;2023-06-24T02:39:37;100847.81;;;25.31;45.83
75172;BME280;63750;52.418;20.742;2023-06-24T02:42:05;100850.08;;;25.29;46.01
75172;BME280;63750;52.418;20.742;2023-06-24T02:44:33;100854.16;;;25.24;45.97
75172;BME280;63750;52.418;20.742;2023-06-24T02:47:03;100859.45;;;25.21;45.99
75172;BME280;63750;52.418;20.742;2023-06-24T02:49:32;100864.98;;;25.19;46.13
75172;BME280;63750;52.418;20.742;2023-06-24T02:52:00;100869.63;;;25.18;46.39
75172;BME280;63750;52.418;20.742;2023-06-24T02:54:28;100870.34;;;25.18;46.32
75172;BME280;63750;52.418;20.742;2023-06-24T02:56:58;100872.03;;;25.17;46.39
75172;BME280;63750;52.418;20.742;2023-06-24T02:59:26;100872.74;;;25.15;46.39
75172;BME280;63750;52.418;20.742;2023-06-24T03:01:55;100871.30;;;25.13;46.58
75172;BME280;63750;52.418;20.742;2023-06-24T03:04:23;100874.19;;;25.13;46.74
75172;BME280;63750;52.418;20.742;2023-06-24T03:06:52;100877.83;;;25.13;46.76
75172;BME280;63750;52.418;20.742;2023-06-24T03:09:21;100879.98;;;25.14;46.65
75172;BME280;63750;52.418;20.742;2023-06-24T03:11:49;100878.36;;;25.14;46.66
75172;BME280;63750;52.418;20.742;2023-06-24T03:14:17;100881.24;;;25.15;46.74
75172;BME280;63750;52.418;20.742;2023-06-24T03:16:45;100883.25;;;25.14;46.63
75172;BME280;63750;52.418;20.742;2023-06-24T03:19:14;100886.99;;;25.11;46.56
75172;BME280;63750;52.418;20.742;2023-06-24T03:21:42;100889.79;;;25.08;46.62
75172;BME280;63750;52.418;20.742;2023-06-24T03:24:10;100892.20;;;25.10;46.91
75172;BME280;63750;52.418;20.742;2023-06-24T03:26:39;100895.33;;;25.11;46.74
75172;BME280;63750;52.418;20.742;2023-06-24T03:29:07;100890.64;;;25.09;47.18
75172;BME280;63750;52.418;20.742;2023-06-24T03:31:35;100892.81;;;25.10;47.07
75172;BME280;63750;52.418;20.742;2023-06-24T03:34:03;100890.51;;;25.11;47.06
75172;BME280;63750;52.418;20.742;2023-06-24T03:36:32;100892.42;;;25.13;47.04
75172;BME280;63750;52.418;20.742;2023-06-24T03:39:00;100895.34;;;25.17;47.22
75172;BME280;63750;52.418;20.742;2023-06-24T03:41:28;100898.41;;;25.21;47.17
75172;BME280;63750;52.418;20.742;2023-06-24T03:43:56;100896.71;;;25.23;47.01
75172;BME280;63750;52.418;20.742;2023-06-24T03:46:24;100898.11;;;25.20;46.83
75172;BME280;63750;52.418;20.742;2023-06-24T03:48:53;100902.58;;;25.17;46.87
75172;BME280;63750;52.418;20.742;2023-06-24T03:51:21;100901.54;;;25.14;46.94
75172;BME280;63750;52.418;20.742;2023-06-24T03:53:49;100903.05;;;25.14;47.02
75172;BME280;63750;52.418;20.742;2023-06-24T03:56:17;100906.02;;;25.13;46.95
75172;BME280;63750;52.418;20.742;2023-06-24T03:58:45;100906.77;;;25.16;47.12
75172;BME280;63750;52.418;20.742;2023-06-24T04:01:13;100903.61;;;25.19;47.36
75172;BME280;63750;52.418;20.742;2023-06-24T04:03:41;100905.59;;;25.22;47.18
75172;BME280;63750;52.418;20.742;2023-06-24T04:06:09;100903.42;;;25.24;47.18
75172;BME280;63750;52.418;20.742;2023-06-24T04:08:38;100901.24;;;25.25;47.19
75172;BME280;63750;52.418;20.742;2023-06-24T04:11:06;100902.11;;;25.27;47.11
75172;BME280;63750;52.418;20.742;2023-06-24T04:13:34;100902.80;;;25.31;47.19
75172;BME280;63750;52.418;20.742;2023-06-24T04:16:02;100904.42;;;25.33;47.17
75172;BME280;63750;52.418;20.742;2023-06-24T04:18:30;100908.11;;;25.34;47.07
75172;BME280;63750;52.418;20.742;2023-06-24T04:20:59;100905.96;;;25.36;47.19
75172;BME280;63750;52.418;20.742;2023-06-24T04:23:27;100911.04;;;25.38;47.12
75172;BME280;63750;52.418;20.742;2023-06-24T04:25:55;100910.33;;;25.38;47.01
75172;BME280;63750;52.418;20.742;2023-06-24T04:28:23;100907.44;;;25.36;47.10
75172;BME280;63750;52.418;20.742;2023-06-24T04:30:51;100909.20;;;25.38;47.10
75172;BME280;63750;52.418;20.742;2023-06-24T04:33:19;100905.60;;;25.41;47.04
75172;BME280;63750;52.418;20.742;2023-06-24T04:35:47;100908.11;;;25.44;47.14
75172;BME280;63750;52.418;20.742;2023-06-24T04:38:15;100903.55;;;25.43;46.98
75172;BME280;63750;52.418;20.742;2023-06-24T04:40:43;100902.77;;;25.42;47.07
75172;BME280;63750;52.418;20.742;2023-06-24T04:43:11;100907.51;;;25.46;47.03
75172;BME280;63750;52.418;20.742;2023-06-24T04:45:40;100908.55;;;25.47;47.06
75172;BME280;63750;52.418;20.742;2023-06-24T04:48:08;100911.94;;;25.48;47.13
75172;BME280;63750;52.418;20.742;2023-06-24T04:50:36;100914.21;;;25.51;47.09
75172;BME280;63750;52.418;20.742;2023-06-24T04:53:04;100916.42;;;25.54;46.93
75172;BME280;63750;52.418;20.742;2023-06-24T04:55:32;100913.29;;;25.54;47.02
75172;BME280;63750;52.418;20.742;2023-06-24T04:58:00;100914.29;;;25.55;46.87
75172;BME280;63750;52.418;20.742;2023-06-24T05:00:28;100914.36;;;25.52;46.82
75172;BME280;63750;52.418;20.742;2023-06-24T05:02:56;100920.71;;;25.53;47.13
75172;BME280;63750;52.418;20.742;2023-06-24T05:05:25;100923.82;;;25.58;46.97
75172;BME280;63750;52.418;20.742;2023-06-24T05:07:53;100927.50;;;25.61;46.85
75172;BME280;63750;52.418;20.742;2023-06-24T05:10:21;100929.25;;;25.65;46.81
75172;BME280;63750;52.418;20.742;2023-06-24T05:12:49;100928.11;;;25.65;46.81
75172;BME280;63750;52.418;20.742;2023-06-24T05:15:17;100927.11;;;25.64;46.86
75172;BME280;63750;52.418;20.742;2023-06-24T05:17:45;100923.42;;;25.61;46.76
75172;BME280;63750;52.418;20.742;2023-06-24T05:20:14;100929.73;;;25.60;46.85
75172;BME280;63750;52.418;20.742;2023-06-24T05:22:42;100935.04;;;25.62;47.01
75172;BME280;63750;52.418;20.742;2023-06-24T05:25:10;100937.55;;;25.68;46.92
75172;BME280;63750;52.418;20.742;2023-06-24T05:27:38;100939.35;;;25.79;46.79
75172;BME280;63750;52.418;20.742;2023-06-24T05:30:08;100939.94;;;25.91;46.70
75172;BME280;63750;52.418;20.742;2023-06-24T05:32:37;100942.38;;;25.99;46.56
75172;BME280;63750;52.418;20.742;2023-06-24T05:35:06;100943.65;;;26.01;46.30
75172;BME280;63750;52.418;20.742;2023-06-24T05:37:34;100947.23;;;26.03;46.18
75172;BME280;63750;52.418;20.742;2023-06-24T05:40:03;100945.26;;;25.99;46.03
75172;BME280;63750;52.418;20.742;2023-06-24T05:42:32;100945.20;;;26.06;46.27
75172;BME280;63750;52.418;20.742;2023-06-24T05:45:00;100951.69;;;26.14;46.22
75172;BME280;63750;52.418;20.742;2023-06-24T05:47:28;100959.77;;;26.20;45.81
75172;BME280;63750;52.418;20.742;2023-06-24T05:49:57;100967.13;;;26.23;45.69
75172;BME280;63750;52.418;20.742;2023-06-24T05:52:25;100968.45;;;26.30;45.64
75172;BME280;63750;52.418;20.742;2023-06-24T05:54:53;100972.28;;;26.33;45.36
75172;BME280;63750;52.418;20.742;2023-06-24T05:57:21;100975.77;;;26.36;45.14
75172;BME280;63750;52.418;20.742;2023-06-24T05:59:49;100979.98;;;26.42;45.17
75172;BME280;63750;52.418;20.742;2023-06-24T06:02:17;100974.89;;;26.47;45.03
75172;BME280;63750;52.418;20.742;2023-06-24T06:04:46;100977.77;;;26.49;44.82
75172;BME280;63750;52.418;20.742;2023-06-24T06:07:15;100976.66;;;26.51;44.72
75172;BME280;63750;52.418;20.742;2023-06-24T06:09:43;100979.47;;;26.52;44.63
75172;BME280;63750;52.418;20.742;2023-06-24T06:12:12;100981.27;;;26.52;44.50
75172;BME280;63750;52.418;20.742;2023-06-24T06:14:40;100988.70;;;26.56;44.60
75172;BME280;63750;52.418;20.742;2023-06-24T06:17:09;100987.23;;;26.60;44.45
75172;BME280;63750;52.418;20.742;2023-06-24T06:19:37;100986.29;;;26.63;44.05
75172;BME280;63750;52.418;20.742;2023-06-24T06:22:06;100988.52;;;26.66;43.94
75172;BME280;63750;52.418;20.742;2023-06-24T06:24:35;100986.53;;;26.68;43.80
75172;BME280;63750;52.418;20.742;2023-06-24T06:27:03;100986.40;;;26.75;43.84
75172;BME280;63750;52.418;20.742;2023-06-24T06:29:31;100987.20;;;26.83;43.50
75172;BME280;63750;52.418;20.742;2023-06-24T06:32:00;100985.70;;;26.91;43.41
75172;BME280;63750;52.418;20.742;2023-06-24T06:34:28;100983.16;;;26.99;43.15
75172;BME280;63750;52.418;20.742;2023-06-24T06:36:56;100981.00;;;27.04;43.26
75172;BME280;63750;52.418;20.742;2023-06-24T06:39:24;100980.55;;;27.09;42.97
75172;BME280;63750;52.418;20.742;2023-06-24T06:41:52;100976.25;;;27.10;42.49
75172;BME280;63750;52.418;20.742;2023-06-24T06:44:20;100975.95;;;27.11;42.64
75172;BME280;63750;52.418;20.742;2023-06-24T06:46:48;100969.19;;;27.11;42.75
75172;BME280;63750;52.418;20.742;2023-06-24T06:49:16;100975.56;;;27.12;43.21
75172;BME280;63750;52.418;20.742;2023-06-24T06:51:44;100976.70;;;27.14;43.36
75172;BME280;63750;52.418;20.742;2023-06-24T06:54:12;100975.08;;;27.17;43.22
75172;BME280;63750;52.418;20.742;2023-06-24T06:56:41;100976.52;;;27.15;43.27
75172;BME280;63750;52.418;20.742;2023-06-24T06:59:09;100976.55;;;27.17;42.79
75172;BME280;63750;52.418;20.742;2023-06-24T07:01:38;100983.48;;;27.06;41.08
75172;BME280;63750;52.418;20.742;2023-06-24T07:04:06;100983.13;;;26.93;41.24
75172;BME280;63750;52.418;20.742;2023-06-24T07:06:34;100979.83;;;26.81;40.71
75172;BME280;63750;52.418;20.742;2023-06-24T07:09:02;100978.59;;;26.72;40.76
75172;BME280;63750;52.418;20.742;2023-06-24T07:11:30;100980.91;;;26.64;40.22
75172;BME280;63750;52.418;20.742;2023-06-24T07:13:58;100979.00;;;26.59;40.10
75172;BME280;63750;52.418;20.742;2023-06-24T07:16:27;100978.13;;;26.52;40.07
75172;BME280;63750;52.418;20.742;2023-06-24T07:18:55;100975.27;;;26.52;40.10
75172;BME280;63750;52.418;20.742;2023-06-24T07:21:23;100972.98;;;26.51;39.92
75172;BME280;63750;52.418;20.742;2023-06-24T07:23:51;100976.48;;;26.54;40.14
75172;BME280;63750;52.418;20.742;2023-06-24T07:26:19;100973.66;;;26.60;40.26
75172;BME280;63750;52.418;20.742;2023-06-24T07:28:48;100974.00;;;26.67;40.20
75172;BME280;63750;52.418;20.742;2023-06-24T07:31:16;100965.75;;;26.75;40.33
75172;BME280;63750;52.418;20.742;2023-06-24T07:33:44;100967.11;;;26.84;40.15
75172;BME280;63750;52.418;20.742;2023-06-24T07:36:12;100971.10;;;26.90;39.95
75172;BME280;63750;52.418;20.742;2023-06-24T07:38:40;100970.88;;;26.93;39.63
75172;BME280;63750;52.418;20.742;2023-06-24T07:41:09;100976.01;;;26.97;39.32
75172;BME280;63750;52.418;20.742;2023-06-24T07:43:37;100974.54;;;27.01;39.33
75172;BME280;63750;52.418;20.742;2023-06-24T07:46:05;100974.42;;;27.05;39.29
75172;BME280;63750;52.418;20.742;2023-06-24T07:48:33;100977.52;;;27.16;39.24
75172;BME280;63750;52.418;20.742;2023-06-24T07:51:01;100977.46;;;27.22;38.85
75172;BME280;63750;52.418;20.742;2023-06-24T07:53:30;100985.67;;;27.27;38.49
75172;BME280;63750;52.418;20.742;2023-06-24T07:55:58;100981.79;;;27.33;38.58
75172;BME280;63750;52.418;20.742;2023-06-24T07:58:26;100979.10;;;27.36;38.19
75172;BME280;63750;52.418;20.742;2023-06-24T08:00:54;100980.45;;;27.47;38.40
75172;BME280;63750;52.418;20.742;2023-06-24T08:03:22;100981.67;;;27.56;38.59
75172;BME280;63750;52.418;20.742;2023-06-24T08:05:50;100982.16;;;27.63;38.20
75172;BME280;63750;52.418;20.742;2023-06-24T08:08:18;100985.97;;;27.66;38.16
75172;BME280;63750;52.418;20.742;2023-06-24T08:10:46;100992.48;;;27.61;38.31
75172;BME280;63750;52.418;20.742;2023-06-24T08:13:14;100994.31;;;27.57;37.90
75172;BME280;63750;52.418;20.742;2023-06-24T08:15:43;100996.92;;;27.57;38.10
75172;BME280;63750;52.418;20.742;2023-06-24T08:18:11;100996.77;;;27.54;37.84
75172;BME280;63750;52.418;20.742;2023-06-24T08:20:39;100997.50;;;27.53;37.61
75172;BME280;63750;52.418;20.742;2023-06-24T08:23:07;100994.38;;;27.51;37.14
75172;BME280;63750;52.418;20.742;2023-06-24T08:25:35;100995.39;;;27.54;37.11
75172;BME280;63750;52.418;20.742;2023-06-24T08:28:03;100996.05;;;27.55;37.48
75172;BME280;63750;52.418;20.742;2023-06-24T08:30:31;100997.98;;;27.59;37.50
75172;BME280;63750;52.418;20.742;2023-06-24T08:32:59;100993.33;;;27.63;37.40
75172;BME280;63750;52.418;20.742;2023-06-24T08:35:27;100990.09;;;27.69;37.65
75172;BME280;63750;52.418;20.742;2023-06-24T08:37:55;100986.83;;;27.74;37.40
75172;BME280;63750;52.418;20.742;2023-06-24T08:40:23;100992.98;;;27.80;37.73
75172;BME280;63750;52.418;20.742;2023-06-24T08:42:52;100996.58;;;27.88;37.82
75172;BME280;63750;52.418;20.742;2023-06-24T08:45:20;100997.98;;;27.95;37.09
75172;BME280;63750;52.418;20.742;2023-06-24T08:47:48;101001.20;;;27.96;37.21
75172;BME280;63750;52.418;20.742;2023-06-24T08:50:17;101004.60;;;27.91;37.10
75172;BME280;63750;52.418;20.742;2023-06-24T08:52:48;101004.55;;;27.90;36.92
75172;BME280;63750;52.418;20.742;2023-06-24T08:55:19;101008.30;;;27.89;36.43
75172;BME280;63750;52.418;20.742;2023-06-24T08:57:50;101013.16;;;27.92;36.95
75172;BME280;63750;52.418;20.742;2023-06-24T09:00:19;101008.15;;;27.95;36.13
75172;BME280;63750;52.418;20.742;2023-06-24T09:02:47;101010.52;;;28.00;36.58
75172;BME280;63750;52.418;20.742;2023-06-24T09:05:15;101016.13;;;28.10;36.13
75172;BME280;63750;52.418;20.742;2023-06-24T09:07:43;101015.07;;;28.14;35.91
75172;BME280;63750;52.418;20.742;2023-06-24T09:10:30;101021.20;;;28.17;35.25
75172;BME280;63750;52.418;20.742;2023-06-24T09:12:58;101023.44;;;28.20;35.64
75172;BME280;63750;52.418;20.742;2023-06-24T09:15:30;101022.77;;;28.20;34.71
75172;BME280;63750;52.418;20.742;2023-06-24T09:17:59;101018.23;;;28.24;35.37
75172;BME280;63750;52.418;20.742;2023-06-24T09:20:27;101021.80;;;28.34;34.68
75172;BME280;63750;52.418;20.742;2023-06-24T09:23:00;101016.18;;;28.42;35.12
75172;BME280;63750;52.418;20.742;2023-06-24T09:25:29;101015.70;;;28.52;35.09
75172;BME280;63750;52.418;20.742;2023-06-24T09:27:59;101018.73;;;28.56;34.45
75172;BME280;63750;52.418;20.742;2023-06-24T09:30:28;101021.92;;;28.63;34.44
75172;BME280;63750;52.418;20.742;2023-06-24T09:32:56;101017.94;;;28.64;33.84
75172;BME280;63750;52.418;20.742;2023-06-24T09:35:26;101015.98;;;28.57;33.99
75172;BME280;63750;52.418;20.742;2023-06-24T09:37:54;101018.50;;;28.57;34.05
75172;BME280;63750;52.418;20.742;2023-06-24T09:40:23;101020.80;;;28.60;34.48
75172;BME280;63750;52.418;20.742;2023-06-24T09:42:56;101023.40;;;28.56;34.11
75172;BME280;63750;52.418;20.742;2023-06-24T09:45:25;101019.70;;;28.53;34.37
75172;BME280;63750;52.418;20.742;2023-06-24T09:47:54;101019.54;;;28.50;34.41
75172;BME280;63750;52.418;20.742;2023-06-24T09:50:23;101016.67;;;28.49;34.92
75172;BME280;63750;52.418;20.742;2023-06-24T09:52:52;101019.83;;;28.46;34.49
75172;BME280;63750;52.418;20.742;2023-06-24T09:55:20;101019.23;;;28.34;34.43
75172;BME280;63750;52.418;20.742;2023-06-24T09:57:52;101016.70;;;28.25;34.83
75172;BME280;63750;52.418;20.742;2023-06-24T10:00:22;101021.22;;;28.19;34.98
75172;BME280;63750;52.418;20.742;2023-06-24T10:02:54;101015.94;;;28.09;35.29
75172;BME280;63750;52.418;20.742;2023-06-24T10:05:23;101018.59;;;28.06;35.67
75172;BME280;63750;52.418;20.742;2023-06-24T10:07:51;101016.90;;;28.03;35.70
75172;BME280;63750;52.418;20.742;2023-06-24T10:10:20;101015.56;;;28.00;35.48
75172;BME280;63750;52.418;20.742;2023-06-24T10:12:48;101019.12;;;27.98;35.62
75172;BME280;63750;52.418;20.742;2023-06-24T10:15:16;101019.60;;;27.92;35.49
75172;BME280;63750;52.418;20.742;2023-06-24T10:17:46;101016.73;;;27.88;35.78
75172;BME280;63750;52.418;20.742;2023-06-24T10:20:14;101020.30;;;27.92;35.97
75172;BME280;63750;52.418;20.742;2023-06-24T10:22:51;101020.89;;;27.90;35.42
75172;BME280;63750;52.418;20.742;2023-06-24T10:25:20;101022.01;;;27.89;35.96
75172;BME280;63750;52.418;20.742;2023-06-24T10:27:52;101019.48;;;27.86;35.65
75172;BME280;63750;52.418;20.742;2023-06-24T10:30:22;101021.80;;;27.75;35.53
75172;BME280;63750;52.418;20.742;2023-06-24T10:32:53;101019.27;;;27.71;35.70
75172;BME280;63750;52.418;20.742;2023-06-24T10:35:25;101025.73;;;27.69;35.20
75172;BME280;63750;52.418;20.742;2023-06-24T10:37:58;101028.05;;;27.65;34.94
75172;BME280;63750;52.418;20.742;2023-06-24T10:40:40;101026.69;;;27.63;35.25
75172;BME280;63750;52.418;20.742;2023-06-24T10:43:29;101024.36;;;27.59;35.36
75172;BME280;63750;52.418;20.742;2023-06-24T10:45:58;101026.20;;;27.52;35.33
75172;BME280;63750;52.418;20.742;2023-06-24T10:48:26;101024.98;;;27.46;35.77
75172;BME280;63750;52.418;20.742;2023-06-24T10:50:54;101027.88;;;27.41;35.90
75172;BME280;63750;52.418;20.742;2023-06-24T10:53:24;101026.50;;;27.37;35.80
75172;BME280;63750;52.418;20.742;2023-06-24T10:55:52;101024.02;;;27.33;36.11
75172;BME280;63750;52.418;20.742;2023-06-24T10:58:20;101033.10;;;27.31;36.15
75172;BME280;63750;52.418;20.742;2023-06-24T11:00:48;101031.15;;;27.27;36.63
75172;BME280;63750;52.418;20.742;2023-06-24T11:03:17;101033.79;;;27.30;37.10
75172;BME280;63750;52.418;20.742;2023-06-24T11:05:47;101029.08;;;27.35;37.29
75172;BME280;63750;52.418;20.742;2023-06-24T11:08:16;101034.25;;;27.35;37.07
75172;BME280;63750;52.418;20.742;2023-06-24T11:10:45;101028.61;;;27.30;37.44
75172;BME280;63750;52.418;20.742;2023-06-24T11:13:14;101029.77;;;27.26;37.01
75172;BME280;63750;52.418;20.742;2023-06-24T11:15:42;101031.05;;;27.27;37.35
75172;BME280;63750;52.418;20.742;2023-06-24T11:18:11;101031.52;;;27.23;37.47
75172;BME280;63750;52.418;20.742;2023-06-24T11:20:40;101031.31;;;27.20;37.38
75172;BME280;63750;52.418;20.742;2023-06-24T11:23:09;101030.88;;;27.18;37.59
75172;BME280;63750;52.418;20.742;2023-06-24T11:25:42;101031.15;;;27.20;37.73
75172;BME280;63750;52.418;20.742;2023-06-24T11:28:18;101031.08;;;27.17;37.14
75172;BME280;63750;52.418;20.742;2023-06-24T11:30:46;101033.85;;;27.17;37.88
75172;BME280;63750;52.418;20.742;2023-06-24T11:33:14;101030.60;;;27.27;39.18
75172;BME280;63750;52.418;20.742;2023-06-24T11:35:53;101030.73;;;27.34;38.75
75172;BME280;63750;52.418;20.742;2023-06-24T11:38:21;101033.86;;;27.33;38.14
75172;BME280;63750;52.418;20.742;2023-06-24T11:40:50;101034.71;;;27.24;37.60
75172;BME280;63750;52.418;20.742;2023-06-24T11:43:18;101029.02;;;27.16;37.10
75172;BME280;63750;52.418;20.742;2023-06-24T11:45:49;101031.34;;;27.09;37.82
75172;BME280;63750;52.418;20.742;2023-06-24T11:48:17;101029.14;;;27.02;37.04
75172;BME280;63750;52.418;20.742;2023-06-24T11:50:54;101029.23;;;27.02;37.76
75172;BME280;63750;52.418;20.742;2023-06-24T11:53:30;101031.23;;;27.07;37.89
75172;BME280;63750;52.418;20.742;2023-06-24T11:55:59;101032.21;;;27.09;37.92
75172;BME280;63750;52.418;20.742;2023-06-24T11:58:27;101028.72;;;27.11;38.36
75172;BME280;63750;52.418;20.742;2023-06-24T12:00:57;101028.22;;;27.10;37.50
75172;BME280;63750;52.418;20.742;2023-06-24T12:03:25;101034.56;;;27.07;37.38
75172;BME280;63750;52.418;20.742;2023-06-24T12:05:55;101034.44;;;27.05;38.64
75172;BME280;63750;52.418;20.742;2023-06-24T12:08:23;101033.52;;;27.09;38.59
75172;BME280;63750;52.418;20.742;2023-06-24T12:10:53;101038.13;;;27.06;37.85
75172;BME280;63750;52.418;20.742;2023-06-24T12:13:21;101037.82;;;26.98;38.48
75172;BME280;63750;52.418;20.742;2023-06-24T12:15:49;101037.66;;;27.01;38.86
75172;BME280;63750;52.418;20.742;2023-06-24T12:18:17;101039.19;;;27.05;38.35
75172;BME280;63750;52.418;20.742;2023-06-24T12:20:45;101039.64;;;27.05;38.89
75172;BME280;63750;52.418;20.742;2023-06-24T12:23:13;101042.61;;;27.14;39.30
75172;BME280;63750;52.418;20.742;2023-06-24T12:25:42;101042.73;;;27.19;38.69
75172;BME280;63750;52.418;20.742;2023-06-24T12:28:10;101046.79;;;27.26;38.10
75172;BME280;63750;52.418;20.742;2023-06-24T12:30:38;101048.52;;;27.25;37.94
75172;BME280;63750;52.418;20.742;2023-06-24T12:33:06;101051.41;;;27.25;37.04
75172;BME280;63750;52.418;20.742;2023-06-24T12:35:35;101051.55;;;27.23;37.18
75172;BME280;63750;52.418;20.742;2023-06-24T12:38:03;101047.39;;;27.28;37.66
75172;BME280;63750;52.418;20.742;2023-06-24T12:40:31;101044.41;;;27.27;37.07
75172;BME280;63750;52.418;20.742;2023-06-24T12:42:59;101042.05;;;27.11;36.40
75172;BME280;63750;52.418;20.742;2023-06-24T12:45:27;101040.86;;;26.99;36.43
75172;BME280;63750;52.418;20.742;2023-06-24T12:47:55;101041.90;;;27.06;37.46
75172;BME280;63750;52.418;20.742;2023-06-24T12:50:23;101038.38;;;27.10;36.82